Latest Conditions
At L.F.Wade Int. Airport
Recorded at 7:55 am
Overcast
Temp.: 
17°C/62°F
Humidity: 
60%
Wind: 
N 6KT
or 7mph
UV Index: 
0
Island Observations
 
Observations
Tuesday, January 21, 2020

Observations are in local time and taken at least once an hour, or upon the start and end of specified events such as showers and thunderstorms.

Time Sky / Weather Wind Speed/Gusts Temp. R.H. Pressure
     knots (mph)  °C (°F)  %  mb / "Hg
 07:55 Overcast  N 6/0 (7/0) 17(62) 60 1016 / 30.01
 06:55 Overcast Showers NNE 6/0 (7/0) 17(62) 61 1016 / 29.99
 05:55 Overcast Showers NNE 7/0 (8/0) 16(61) 66 1016 / 29.99
 05:22 Overcast Showers NE 7/0 (8/0) 16(60) 72 1016 / 29.99
 05:00 Overcast Showers NNE 7/0 (8/0) 16(61) 70 1015 / 29.98
 04:55 Overcast Showers N 8/0 (9/0) 16(61) 67 1015 / 29.98
 04:35 Overcast Showers NNE 9/0 (10/0) 16(62) 66 1015 / 29.97
 04:21 Overcast Showers NE 8/0 (9/0) 17(62) 65 1015 / 29.97
 04:07 Overcast Showers NE 8/0 (9/0) 17(62) 65 1015 / 29.98
 03:55 Overcast Showers N 7/0 (8/0) 17(62) 63 1015 / 29.98
 03:30 Overcast Showers N 6/0 (7/0) 17(63) 61 1016 / 29.99
 02:55 Overcast  N 9/0 (10/0) 17(63) 65 1015 / 29.97
 01:55 Overcast  N 9/0 (10/0) 17(63) 64 1016 / 29.99
 00:55 Overcast  NNW 8/0 (9/0) 17(63) 63 1016 / 30.00
 00:16 Overcast  N 8/0 (9/0) 17(62) 68 1016 / 30.01
 23:55 Overcast Rain N 9/0 (10/0) 17(63) 70 1017 / 30.02
 22:55 Overcast Rain N 10/0 (12/0) 16(62) 78 1017 / 30.02
 21:55 Overcast Rain N 9/0 (10/0) 17(63) 71 1017 / 30.02
 21:40 Overcast Rain NNE 8/0 (9/0) 17(63) 71 1016 / 30.01
 21:12 Overcast  N 11/0 (13/0) 17(62) 79 1016 / 30.00
 20:55 Overcast Rain N 11/0 (13/0) 17(62) 78 1016 / 30.01
 20:14 Overcast Rain N 12/0 (14/0) 17(62) 80 1016 / 30.01
 19:55 Overcast Rain N 13/0 (15/0) 17(62) 82 1016 / 30.00
 19:26 Overcast Rain N 13/0 (15/0) 17(62) 85 1016 / 29.99
 19:06 Overcast Rain N 14/0 (16/0) 16(62) 89 1016 / 29.99
 18:55 Overcast Rain N 12/0 (14/0) 16(61) 92 1015 / 29.98
 18:43 Overcast Rain N 11/0 (13/0) 16(62) 93 1015 / 29.98
 18:29 Overcast Rain N 14/0 (16/0) 16(61) 93 1015 / 29.97
 18:13 Overcast Rain N 14/0 (16/0) 17(62) 93 1015 / 29.97
 17:55 Overcast Rain N 13/0 (15/0) 17(62) 92 1015 / 29.96
 17:07 Overcast Rain N 13/0 (15/0) 17(63) 95 1014 / 29.95
 16:55 Overcast Rain N 12/0 (14/0) 17(63) 95 1014 / 29.95
 16:22 Overcast Rain N 12/0 (14/0) 18(64) 95 1014 / 29.94
 16:10 Overcast Rain W 18/0 (21/0) 18(64) 95 1013 / 29.92
 16:01 Overcast Rain WSW 16/0 (18/0) 18(65) 95 1013 / 29.92
 15:55 Overcast Rain SW 16/0 (18/0) 19(66) 91 1013 / 29.91
 15:16 Overcast Rain SW 17/0 (20/0) 19(66) 90 1013 / 29.91
 14:55 Overcast Rain WSW 15/0 (17/0) 19(66) 90 1013 / 29.91
 14:30 Overcast Rain SW 16/0 (18/0) 19(66) 93 1013 / 29.91
 13:55 Overcast Rain WSW 16/0 (18/0) 19(66) 89 1013 / 29.92
 12:55 Overcast Rain W 14/0 (16/0) 18(64) 87 1014 / 29.94
 12:36 Overcast Rain W 19/0 (22/0) 17(62) 93 1015 / 29.96
 12:08 Overcast Rain WSW 20/0 (23/0) 17(62) 95 1015 / 29.98
 11:55 Overcast Rain WSW 19/0 (22/0) 18(64) 94 1015 / 29.98
 11:21 Overcast Rain W 15/0 (17/0) 17(62) 96 1016 / 29.99
 11:13 Overcast Rain WSW 19/0 (22/0) 17(62) 96 1016 / 30.00
 10:55 Overcast Rain SW 22/35 (25/40) 20(68) 88 1015 / 29.98
 10:45 Overcast Rain SW 20/0 (23/0) 20(68) 85 1015 / 29.98
 09:55 Mostly Cloudy Rain SW 20/0 (23/0) 20(68) 85 1015 / 29.98
 09:12 Mostly Cloudy Showers SW 22/0 (25/0) 21(69) 81 1015 / 29.97
 08:55 Mostly Cloudy Showers SW 24/0 (28/0) 20(69) 85 1015 / 29.96
 07:55 Mostly Cloudy  SW 27/0 (31/0) 20(69) 80 1015 / 29.96
 06:55 Mostly Cloudy  SW 24/0 (28/0) 19(66) 88 1014 / 29.94
 06:15 Overcast Showers SW 24/0 (28/0) 19(66) 88 1014 / 29.94
 06:00 Overcast Showers SW 28/0 (32/0) 19(66) 88 1014 / 29.94
 05:55 Overcast Showers SW 28/0 (32/0) 19(66) 87 1014 / 29.94
 05:44 Overcast Showers SW 26/0 (30/0) 20(68) 79 1014 / 29.94
 04:55 Mostly Cloudy  SSW 28/0 (32/0) 20(68) 79 1014 / 29.94
 03:55 Overcast  SSW 27/0 (31/0) 20(68) 79 1015 / 29.96
 02:55 Overcast Showers SSW 29/0 (33/0) 20(67) 78 1015 / 29.98
 02:46 Overcast Showers SW 29/0 (33/0) 20(68) 76 1015 / 29.98
 01:55 Overcast  SSW 28/0 (32/0) 20(67) 80 1016 / 30.01
 01:27 Overcast  SSW 25/0 (29/0) 20(67) 78 1017 / 30.02
 01:09 Overcast  SSW 26/0 (30/0) 20(68) 76 1017 / 30.03
 00:55 Overcast  SSW 26/0 (30/0) 20(68) 74 1017 / 30.04
 23:55 Overcast  SSW 27/0 (31/0) 20(68) 74 1018 / 30.06
 22:55 Overcast  SSW 27/0 (31/0) 20(68) 68 1019 / 30.08
 21:55 Overcast  SSW 25/0 (29/0) 19(67) 72 1019 / 30.09
 20:55 Overcast Showers SSW 28/0 (32/0) 20(67) 70 1019 / 30.10
 19:55 Overcast  SSW 27/0 (31/0) 19(67) 66 1020 / 30.11
 18:55 Mostly Cloudy Showers SW 26/0 (30/0) 19(67) 64 1020 / 30.13
 18:34 Mostly Cloudy Showers SW 28/0 (32/0) 19(67) 67 1020 / 30.12
 18:25 Mostly Cloudy Showers WSW 23/0 (26/0) 19(66) 67 1020 / 30.13
 17:55 Mostly Cloudy  SSW 26/0 (30/0) 19(66) 64 1020 / 30.13
 16:55 Mostly Cloudy  SSW 25/0 (29/0) 19(66) 62 1020 / 30.13
 15:55 Mostly Cloudy  SSW 26/0 (30/0) 19(66) 62 1021 / 30.14
 14:55 Mostly Cloudy  SSW 24/0 (28/0) 19(66) 58 1021 / 30.15
 14:27 Mostly Cloudy Showers SW 25/0 (29/0) 19(66) 61 1021 / 30.15
 13:55 Mostly Cloudy Showers SW 24/0 (28/0) 18(65) 67 1022 / 30.17
 12:55 Mostly Cloudy Showers SSW 22/0 (25/0) 19(66) 58 1023 / 30.20
 11:55 Mostly Cloudy Showers SW 17/0 (20/0) 18(64) 56 1025 / 30.27
 11:15 Mostly Cloudy Showers SW 18/0 (21/0) 18(64) 56 1025 / 30.28
 10:55 Mostly Cloudy Showers SW 17/0 (20/0) 18(64) 56 1026 / 30.29
 09:55 Mostly Cloudy  SW 14/24 (16/28) 17(63) 59 1026 / 30.31
 08:55 Mostly Cloudy  SSW 17/0 (20/0) 17(62) 58 1026 / 30.30
 07:55 Mostly Cloudy  SSW 16/0 (18/0) 16(61) 58 1026 / 30.30
 06:55 Mostly Cloudy  SSW 14/0 (16/0) 16(60) 56 1026 / 30.31
 05:55 Mostly Cloudy  SW 9/0 (10/0) 15(59) 56 1026 / 30.30
 04:55 Mostly Cloudy  SW 11/0 (13/0) 15(59) 57 1026 / 30.30
 03:55 Mostly Cloudy  SSW 8/0 (9/0) 14(58) 59 1027 / 30.32
 02:55 Mostly Cloudy  S 7/0 (8/0) 15(58) 56 1027 / 30.34
 01:55 Mostly Cloudy  SW 5/0 (6/0) 14(58) 57 1028 / 30.36
 00:55 Mostly Cloudy  SW 5/0 (6/0) 14(57) 59 1029 / 30.38
 23:55 Mostly Cloudy  SW 3/0 (3/0) 13(56) 68 1029 / 30.39
 22:55 Mostly Cloudy  Calm 13(56) 68 1029 / 30.40
 21:55 Mostly Cloudy  VRB 2/0 (2/0) 14(57) 58 1029 / 30.40
 20:55 Mostly Cloudy  NW 2/0 (2/0) 14(58) 59 1029 / 30.40
 19:55 Mostly Cloudy  NNE 5/0 (6/0) 14(58) 59 1029 / 30.40
 18:55 Partly Cloudy  N 6/0 (7/0) 14(57) 61 1029 / 30.40
 17:55 Mostly Cloudy Showers N 8/0 (9/0) 14(58) 48 1029 / 30.39
Island AWOS